Time;durP1;ratioP1;P1;durP2;ratioP2;P2;SDS_P1;SDS_P2;PMS_P1;PMS_P2;Temp;Humidity;BMP_temperature;BMP_pressure;BME280_temperature;BME280_humidity;BME280_pressure;Samples;Min_cycle;Max_cycle;Signal;HPM_P1;HPM_P2
2021/01/09 00:01:18;;;;;;;31.03;21.17;;;-0.10;99.90;;;;;;5075957;28;39019;-76
2021/01/09 00:03:44;;;;;;;30.20;20.70;;;-0.10;99.90;;;;;;5088150;28;38892;-76
2021/01/09 00:06:10;;;;;;;45.20;27.57;;;0.00;99.90;;;;;;5086400;28;39261;-75
2021/01/09 00:08:37;;;;;;;39.80;24.37;;;0.00;99.90;;;;;;5083170;28;38234;-75
2021/01/09 00:11:04;;;;;;;34.60;22.90;;;0.00;99.90;;;;;;5077507;28;37046;-76
2021/01/09 00:13:30;;;;;;;37.20;23.00;;;0.00;99.90;;;;;;5061622;28;39497;-76
2021/01/09 00:15:56;;;;;;;28.97;20.17;;;0.00;99.90;;;;;;5093192;28;38159;-76
2021/01/09 00:18:23;;;;;;;38.47;24.43;;;0.00;99.90;;;;;;5084880;28;37365;-76
2021/01/09 00:20:50;;;;;;;34.07;22.73;;;0.00;99.90;;;;;;5075435;28;36474;-76
2021/01/09 00:23:16;;;;;;;35.83;24.43;;;0.00;99.90;;;;;;5078938;28;40407;-76
2021/01/09 00:25:42;;;;;;;34.83;23.17;;;0.00;99.90;;;;;;5082621;28;39104;-76
2021/01/09 00:28:08;;;;;;;43.70;24.87;;;-0.10;99.90;;;;;;5075029;28;38962;-75
2021/01/09 00:30:34;;;;;;;39.50;25.67;;;-0.10;99.90;;;;;;5086115;28;36942;-77
2021/01/09 00:33:00;;;;;;;36.63;23.40;;;-0.20;99.90;;;;;;5084495;28;39184;-76
2021/01/09 00:35:26;;;;;;;33.80;21.40;;;-0.30;99.90;;;;;;5087613;28;38387;-76
2021/01/09 00:37:52;;;;;;;36.37;22.70;;;-0.40;99.90;;;;;;5065745;28;37018;-76
2021/01/09 00:40:18;;;;;;;28.50;18.87;;;-0.40;99.90;;;;;;5057617;28;38023;-76
2021/01/09 00:42:47;;;;;;;34.63;22.30;;;-0.50;99.90;;;;;;5056687;28;39513;-76
2021/01/09 00:45:14;;;;;;;27.13;18.43;;;-0.50;99.90;;;;;;5081106;28;37799;-75
2021/01/09 00:47:40;;;;;;;37.07;23.20;;;-0.50;99.90;;;;;;5055734;28;39445;-76
2021/01/09 00:50:07;;;;;;;37.73;23.37;;;-0.60;99.90;;;;;;5073868;28;38068;-76
2021/01/09 00:52:33;;;;;;;36.73;22.13;;;-0.60;99.90;;;;;;5080156;28;37668;-75
2021/01/09 00:54:59;;;;;;;39.67;23.63;;;-0.70;99.90;;;;;;5086941;28;39579;-76
2021/01/09 00:57:25;;;;;;;37.63;21.00;;;-0.80;99.90;;;;;;5085920;28;36728;-76
2021/01/09 00:59:51;;;;;;;30.67;19.87;;;-0.80;99.90;;;;;;5062849;28;38077;-76
2021/01/09 01:02:17;;;;;;;32.70;20.63;;;-0.80;99.90;;;;;;5070671;28;40009;-76
2021/01/09 01:04:43;;;;;;;32.73;21.10;;;-0.80;99.90;;;;;;5077404;28;39156;-76
2021/01/09 01:07:10;;;;;;;31.83;20.13;;;-0.90;99.90;;;;;;5074167;28;38360;-76
2021/01/09 01:09:36;;;;;;;27.50;16.63;;;-0.90;99.90;;;;;;5088657;28;36022;-75
2021/01/09 01:12:02;;;;;;;32.33;21.07;;;-0.90;99.90;;;;;;5074773;28;37552;-75
2021/01/09 01:14:29;;;;;;;35.50;22.10;;;-0.90;99.90;;;;;;5090240;28;37121;-76
2021/01/09 01:16:55;;;;;;;36.13;22.80;;;-0.90;99.90;;;;;;5082194;28;37391;-75
2021/01/09 01:19:21;;;;;;;24.90;17.40;;;-0.90;99.90;;;;;;5066100;28;40563;-74
2021/01/09 01:21:47;;;;;;;27.23;15.87;;;-0.90;99.90;;;;;;5088356;28;38831;-75
2021/01/09 01:24:13;;;;;;;36.17;21.33;;;-0.90;99.90;;;;;;5085063;28;37239;-75
2021/01/09 01:26:39;;;;;;;35.47;21.43;;;-1.00;99.90;;;;;;5078885;28;38744;-76
2021/01/09 01:29:05;;;;;;;29.80;19.37;;;-1.00;99.90;;;;;;5074242;28;38007;-76
2021/01/09 01:31:31;;;;;;;26.03;16.33;;;-1.00;99.90;;;;;;5065490;28;40549;-75
2021/01/09 01:33:57;;;;;;;41.07;25.67;;;-1.00;99.90;;;;;;5071048;28;38681;-76
2021/01/09 01:36:24;;;;;;;30.70;19.70;;;-1.00;99.90;;;;;;5077839;28;38736;-76
2021/01/09 01:38:50;;;;;;;32.47;18.53;;;-1.00;99.90;;;;;;5081504;28;37438;-75
2021/01/09 01:41:16;;;;;;;27.40;17.43;;;-1.00;99.90;;;;;;5069051;28;40115;-76
2021/01/09 01:43:42;;;;;;;26.50;17.10;;;-1.00;99.90;;;;;;5076476;28;39791;-76
2021/01/09 01:46:10;;;;;;;23.30;14.47;;;-1.00;99.90;;;;;;5069639;28;41779;-75
2021/01/09 01:48:37;;;;;;;26.33;15.57;;;-1.00;99.90;;;;;;5073461;28;38962;-75
2021/01/09 01:51:04;;;;;;;27.83;18.23;;;-0.90;99.90;;;;;;5088843;28;38753;-75
2021/01/09 01:53:31;;;;;;;25.37;15.93;;;-0.90;99.90;;;;;;5088459;28;40133;-76
2021/01/09 01:55:57;;;;;;;24.23;15.37;;;-1.00;99.90;;;;;;5078496;28;38899;-75
2021/01/09 01:58:24;;;;;;;25.53;16.83;;;-1.00;99.90;;;;;;5064280;28;38186;-76
2021/01/09 02:00:50;;;;;;;23.10;15.03;;;-1.00;99.90;;;;;;5086810;28;38975;-75
2021/01/09 02:03:17;;;;;;;26.47;15.87;;;-0.90;99.90;;;;;;5080975;28;38611;-75
2021/01/09 02:05:52;;;;;;;22.37;14.37;;;-0.90;99.90;;;;;;5080886;28;38117;-75
2021/01/09 02:08:24;;;;;;;20.47;14.20;;;-1.00;99.90;;;;;;5083394;28;38612;-75
2021/01/09 02:10:58;;;;;;;22.97;15.87;;;-1.00;99.90;;;;;;5088359;28;39230;-75
2021/01/09 02:13:44;;;;;;;25.10;16.93;;;-1.00;99.90;;;;;;5077504;28;38960;-75
2021/01/09 02:16:11;;;;;;;24.53;14.73;;;-1.10;99.90;;;;;;5073330;28;36991;-75
2021/01/09 02:18:41;;;;;;;20.70;14.30;;;-1.20;99.90;;;;;;5062555;28;39221;-77
2021/01/09 02:21:18;;;;;;;22.80;15.47;;;-1.20;99.90;;;;;;5087868;28;40501;-75
2021/01/09 02:23:44;;;;;;;28.87;15.43;;;-1.20;99.90;;;;;;5090911;28;38540;-75
2021/01/09 02:26:10;;;;;;;22.93;14.43;;;-1.20;99.90;;;;;;5077835;28;38913;-75
2021/01/09 02:28:36;;;;;;;18.10;11.67;;;-1.30;99.90;;;;;;5085905;28;38460;-75
2021/01/09 02:31:04;;;;;;;21.50;14.53;;;-1.20;99.90;;;;;;5090557;28;40884;-75
2021/01/09 02:33:33;;;;;;;23.30;14.87;;;-1.20;99.90;;;;;;5082292;28;38625;-75
2021/01/09 02:36:01;;;;;;;25.80;15.23;;;-1.20;99.90;;;;;;5076129;28;39607;-75
2021/01/09 02:38:28;;;;;;;19.23;12.83;;;-1.20;99.90;;;;;;5071198;28;49335;-75
2021/01/09 02:40:54;;;;;;;24.03;15.33;;;-1.20;99.90;;;;;;5056918;28;40755;-75
2021/01/09 02:43:25;;;;;;;19.13;12.47;;;-1.20;99.90;;;;;;5060637;28;39825;-75
2021/01/09 02:45:51;;;;;;;26.83;17.40;;;-1.20;99.90;;;;;;5062352;28;38529;-75
2021/01/09 02:48:17;;;;;;;29.30;16.40;;;-1.20;99.90;;;;;;5075454;28;37770;-76
2021/01/09 02:50:43;;;;;;;25.43;15.80;;;-1.20;99.90;;;;;;5058924;28;39597;-75
2021/01/09 02:53:10;;;;;;;22.80;13.90;;;-1.30;99.90;;;;;;5053380;28;38921;-75
2021/01/09 02:55:36;;;;;;;20.17;13.37;;;-1.30;99.90;;;;;;5061585;28;39289;-76
2021/01/09 02:58:02;;;;;;;22.83;13.97;;;-1.40;99.90;;;;;;5069778;27;38023;-76
2021/01/09 03:00:28;;;;;;;23.43;14.40;;;-1.40;99.90;;;;;;5073333;28;39079;-76
2021/01/09 03:02:54;;;;;;;22.97;14.13;;;-1.40;99.90;;;;;;5086841;28;38631;-76
2021/01/09 03:05:20;;;;;;;18.67;13.00;;;-1.50;99.90;;;;;;5072761;28;38890;-75
2021/01/09 03:07:46;;;;;;;24.03;14.50;;;-1.50;99.90;;;;;;5080157;28;37211;-75
2021/01/09 03:10:12;;;;;;;20.50;13.07;;;-1.60;99.90;;;;;;5056721;28;39489;-75
2021/01/09 03:12:38;;;;;;;22.40;14.37;;;-1.60;99.90;;;;;;5055787;28;38122;-76
2021/01/09 03:15:05;;;;;;;24.00;14.10;;;-1.60;99.90;;;;;;5074660;28;38274;-75
2021/01/09 03:17:31;;;;;;;23.33;13.60;;;-1.60;99.90;;;;;;5063403;28;37794;-75
2021/01/09 03:19:57;;;;;;;24.83;14.03;;;-1.60;99.90;;;;;;5069953;28;39247;-75
2021/01/09 03:22:23;;;;;;;19.73;12.20;;;-1.60;99.90;;;;;;5077420;28;38188;-75
2021/01/09 03:24:49;;;;;;;19.97;13.53;;;-1.60;99.90;;;;;;5075218;27;38239;-75
2021/01/09 03:27:15;;;;;;;22.40;13.97;;;-1.60;99.90;;;;;;5087098;28;37549;-75
2021/01/09 03:29:41;;;;;;;19.37;11.53;;;-1.60;99.90;;;;;;5078509;28;40707;-75
2021/01/09 03:32:07;;;;;;;17.70;11.70;;;-1.70;99.90;;;;;;5086303;28;38319;-75
2021/01/09 03:34:33;;;;;;;26.37;13.27;;;-1.70;99.90;;;;;;5073024;28;38659;-75
2021/01/09 03:36:59;;;;;;;17.27;11.03;;;-1.70;99.90;;;;;;5088202;28;37163;-75
2021/01/09 03:39:25;;;;;;;20.50;12.00;;;-1.70;99.90;;;;;;5064277;28;39528;-76
2021/01/09 03:41:52;;;;;;;20.47;13.07;;;-1.70;99.90;;;;;;5069160;28;37292;-75
2021/01/09 03:44:18;;;;;;;20.30;11.73;;;-1.60;99.90;;;;;;5060410;28;39165;-75
2021/01/09 03:46:44;;;;;;;20.90;11.93;;;-1.60;99.90;;;;;;5061792;28;39634;-75
2021/01/09 03:49:10;;;;;;;20.37;12.53;;;-1.70;99.90;;;;;;5076574;28;38605;-76
2021/01/09 03:51:36;;;;;;;20.73;11.13;;;-1.80;99.90;;;;;;5073128;28;39021;-76
2021/01/09 03:54:03;;;;;;;16.33;10.43;;;-1.80;99.90;;;;;;5076761;27;37948;-75
2021/01/09 03:56:29;;;;;;;15.53;10.47;;;-1.70;99.90;;;;;;5075651;28;37133;-76
2021/01/09 03:58:55;;;;;;;17.90;11.57;;;-1.70;99.90;;;;;;5077418;28;39705;-75
2021/01/09 04:01:21;;;;;;;19.10;11.30;;;-1.70;99.90;;;;;;5088038;28;37299;-75
2021/01/09 04:03:47;;;;;;;17.90;10.63;;;-1.80;99.90;;;;;;5090065;28;38267;-76
2021/01/09 04:06:13;;;;;;;20.07;11.07;;;-1.80;99.90;;;;;;5073148;28;37426;-75
2021/01/09 04:08:39;;;;;;;16.97;10.43;;;-1.80;99.90;;;;;;5074202;28;40825;-75
2021/01/09 04:11:05;;;;;;;16.20;11.07;;;-1.80;99.90;;;;;;5077816;28;38793;-75
2021/01/09 04:13:31;;;;;;;19.00;11.40;;;-1.80;99.90;;;;;;5076379;28;39733;-75
2021/01/09 04:15:57;;;;;;;15.30;9.40;;;-1.80;99.90;;;;;;5083926;28;38475;-75
2021/01/09 04:18:23;;;;;;;18.03;10.27;;;-1.80;99.90;;;;;;5081989;28;39453;-76
2021/01/09 04:20:50;;;;;;;17.17;10.33;;;-1.80;99.90;;;;;;5090610;28;38549;-76
2021/01/09 04:23:16;;;;;;;15.10;10.43;;;-1.80;99.90;;;;;;5075462;28;38520;-75
2021/01/09 04:25:42;;;;;;;16.63;8.80;;;-1.80;99.90;;;;;;5063293;28;38960;-75
2021/01/09 04:28:08;;;;;;;15.03;10.00;;;-1.80;99.90;;;;;;5082300;28;39838;-76
2021/01/09 04:30:34;;;;;;;21.90;10.07;;;-1.80;99.90;;;;;;5082453;28;37321;-75
2021/01/09 04:33:00;;;;;;;14.20;9.77;;;-1.80;99.90;;;;;;5092991;28;39235;-76
2021/01/09 04:35:26;;;;;;;18.40;10.63;;;-1.90;99.90;;;;;;5084333;27;37226;-75
2021/01/09 04:37:52;;;;;;;16.10;10.03;;;-1.90;99.90;;;;;;5079671;28;38497;-76
2021/01/09 04:40:18;;;;;;;15.43;10.00;;;-1.90;99.90;;;;;;5061445;27;39070;-75
2021/01/09 04:42:44;;;;;;;13.23;8.03;;;-1.90;99.90;;;;;;5078888;28;39012;-75
2021/01/09 04:45:12;;;;;;;19.27;10.13;;;-1.90;99.90;;;;;;5065071;28;38778;-76
2021/01/09 04:47:39;;;;;;;18.13;10.27;;;-2.00;99.90;;;;;;5079644;28;39877;-76
2021/01/09 04:50:06;;;;;;;12.67;8.53;;;-2.00;99.90;;;;;;5067126;28;38880;-75
2021/01/09 04:52:33;;;;;;;13.50;9.00;;;-2.00;99.90;;;;;;5091659;27;38697;-75
2021/01/09 04:54:59;;;;;;;14.00;8.77;;;-2.00;99.90;;;;;;5069620;28;38780;-75
2021/01/09 04:57:30;;;;;;;17.77;9.20;;;-2.00;99.90;;;;;;5087042;28;38627;-75
2021/01/09 04:59:57;;;;;;;15.57;8.90;;;-2.00;99.90;;;;;;5085372;28;40099;-76
2021/01/09 05:02:23;;;;;;;12.57;8.13;;;-2.00;99.90;;;;;;5065123;28;38648;-74
2021/01/09 05:04:49;;;;;;;15.63;8.67;;;-2.10;99.90;;;;;;5069306;28;37648;-74
2021/01/09 05:07:15;;;;;;;14.90;8.43;;;-2.20;99.90;;;;;;5078518;28;39323;-76
2021/01/09 05:09:43;;;;;;;13.37;9.20;;;-2.20;99.90;;;;;;5078395;28;39422;-76
2021/01/09 05:12:10;;;;;;;19.60;9.40;;;-2.20;99.90;;;;;;5071748;28;39935;-75
2021/01/09 05:14:36;;;;;;;19.57;9.13;;;-2.20;99.90;;;;;;5075594;28;37809;-76
2021/01/09 05:17:02;;;;;;;16.97;9.17;;;-2.20;99.90;;;;;;5078327;28;39204;-75
2021/01/09 05:19:29;;;;;;;18.00;9.90;;;-2.30;99.90;;;;;;5092737;28;36419;-75
2021/01/09 05:22:01;;;;;;;17.30;9.33;;;-2.20;99.90;;;;;;5091216;28;38585;-75
2021/01/09 05:24:28;;;;;;;13.20;8.07;;;-2.20;99.90;;;;;;5091316;28;48638;-75
2021/01/09 05:26:54;;;;;;;15.90;8.80;;;-2.10;99.90;;;;;;5089898;28;39982;-76
2021/01/09 05:29:21;;;;;;;17.40;9.03;;;-2.00;99.90;;;;;;5072099;28;39137;-75
2021/01/09 05:31:48;;;;;;;13.40;8.63;;;-2.00;99.90;;;;;;5069286;28;37014;-76
2021/01/09 05:34:14;;;;;;;15.43;9.53;;;-2.00;99.90;;;;;;5072666;28;37700;-75
2021/01/09 05:36:41;;;;;;;15.27;10.13;;;-2.00;99.90;;;;;;5076432;28;39239;-75
2021/01/09 05:39:07;;;;;;;13.37;8.60;;;-1.90;99.90;;;;;;5087021;28;38568;-76
2021/01/09 05:41:33;;;;;;;19.60;9.83;;;-1.90;99.90;;;;;;5074082;28;40096;-75
2021/01/09 05:44:05;;;;;;;17.13;9.67;;;-1.80;99.90;;;;;;5066923;28;36675;-75
2021/01/09 05:46:33;;;;;;;15.87;10.27;;;-1.80;99.90;;;;;;5086205;28;47689;-76
2021/01/09 05:49:00;;;;;;;16.07;9.90;;;-1.70;99.90;;;;;;5094386;28;38567;-75
2021/01/09 05:51:28;;;;;;;17.33;9.40;;;-1.60;99.90;;;;;;5078325;28;47359;-75
2021/01/09 05:53:54;;;;;;;17.90;8.63;;;-1.50;99.90;;;;;;5076170;28;38193;-76
2021/01/09 05:56:21;;;;;;;15.60;9.13;;;-1.50;99.90;;;;;;5076127;28;39797;-75
2021/01/09 05:58:52;;;;;;;16.10;10.10;;;-1.40;99.90;;;;;;5085370;28;39865;-76
2021/01/09 06:01:29;;;;;;;12.07;9.00;;;-1.40;99.90;;;;;;5075924;28;38680;-76
2021/01/09 06:04:05;;;;;;;14.10;8.67;;;-1.40;99.90;;;;;;5091976;28;37437;-75
2021/01/09 06:07:17;;;;;;;12.53;8.07;;;-1.50;99.90;;;;;;5077359;28;47215;-75
2021/01/09 06:09:48;;;;;;;13.57;8.97;;;-1.50;99.90;;;;;;5069008;28;49129;-76
2021/01/09 06:12:17;;;;;;;11.27;6.87;;;-1.60;99.90;;;;;;5066281;28;38432;-76
2021/01/09 06:14:44;;;;;;;12.37;8.13;;;-1.70;99.90;;;;;;5084180;28;36992;-76
2021/01/09 06:17:13;;;;;;;13.63;8.17;;;-1.80;99.90;;;;;;5059858;28;39414;-75
2021/01/09 06:19:39;;;;;;;9.53;6.37;;;-1.90;99.90;;;;;;5086279;28;39635;-76
2021/01/09 06:22:06;;;;;;;21.33;9.67;;;-1.90;99.90;;;;;;5082090;28;36990;-76
2021/01/09 06:24:34;;;;;;;16.33;9.00;;;-2.00;99.90;;;;;;5077805;28;37910;-76
2021/01/09 06:27:00;;;;;;;16.40;7.77;;;-2.00;99.90;;;;;;5069932;28;38683;-76
2021/01/09 06:29:28;;;;;;;14.93;7.73;;;-2.00;99.90;;;;;;5083093;28;37198;-76
2021/01/09 06:31:59;;;;;;;12.37;7.40;;;-2.00;99.90;;;;;;5072231;28;37303;-75
2021/01/09 06:34:30;;;;;;;13.90;7.67;;;-2.00;99.90;;;;;;5086764;28;37267;-75
2021/01/09 06:37:04;;;;;;;14.77;8.43;;;-2.00;99.90;;;;;;5076041;28;39452;-76
2021/01/09 06:39:33;;;;;;;12.43;7.83;;;-2.00;99.90;;;;;;5087349;28;48764;-76
2021/01/09 06:42:02;;;;;;;15.47;8.93;;;-2.00;99.90;;;;;;5090154;28;38305;-75
2021/01/09 06:44:30;;;;;;;17.63;8.50;;;-1.90;99.90;;;;;;5087679;28;47046;-76
2021/01/09 06:46:57;;;;;;;12.67;7.93;;;-1.80;99.90;;;;;;5084468;28;38635;-76
2021/01/09 06:49:27;;;;;;;18.57;8.37;;;-1.60;99.90;;;;;;5086339;28;38519;-76
2021/01/09 06:52:01;;;;;;;13.70;7.87;;;-1.50;99.90;;;;;;5090216;28;36714;-76
2021/01/09 06:54:28;;;;;;;17.90;8.40;;;-1.40;99.90;;;;;;5072160;28;47031;-75
2021/01/09 06:57:10;;;;;;;18.00;8.97;;;-1.30;99.90;;;;;;5087275;28;39114;-76
2021/01/09 06:59:40;;;;;;;11.07;6.93;;;-1.20;99.90;;;;;;5083550;28;49747;-75
2021/01/09 07:02:15;;;;;;;12.93;7.40;;;-1.20;99.90;;;;;;5090498;28;38478;-76
2021/01/09 07:05:05;;;;;;;18.90;9.83;;;-1.10;99.90;;;;;;5086045;28;38814;-76
2021/01/09 07:07:37;;;;;;;14.70;10.27;;;-1.00;99.90;;;;;;5088449;28;48181;-76
2021/01/09 07:10:29;;;;;;;16.97;9.43;;;-0.90;99.90;;;;;;5078171;28;37474;-76
2021/01/09 07:13:14;;;;;;;13.23;7.30;;;-0.80;99.90;;;;;;5076708;28;48631;-76
2021/01/09 07:15:40;;;;;;;15.67;8.90;;;-0.80;99.90;;;;;;5087738;28;49121;-77
2021/01/09 07:18:07;;;;;;;15.50;8.67;;;-0.80;99.90;;;;;;5071667;28;38108;-75
2021/01/09 07:20:37;;;;;;;19.23;10.03;;;-0.80;99.90;;;;;;5074977;28;39880;-76
2021/01/09 07:23:06;;;;;;;16.63;10.30;;;-0.80;99.90;;;;;;5060862;28;38972;-75
2021/01/09 07:25:32;;;;;;;15.33;9.73;;;-0.90;99.90;;;;;;5077101;28;38251;-75
2021/01/09 07:28:01;;;;;;;21.07;10.00;;;-0.90;99.90;;;;;;5089458;28;39448;-76
2021/01/09 07:30:29;;;;;;;20.03;9.80;;;-1.00;99.90;;;;;;5056035;28;47435;-75
2021/01/09 07:32:56;;;;;;;14.40;9.50;;;-1.10;99.90;;;;;;5052053;28;39057;-76
2021/01/09 07:35:30;;;;;;;21.17;10.80;;;-1.20;99.90;;;;;;5068943;28;37022;-75
2021/01/09 07:37:57;;;;;;;21.77;9.83;;;-1.20;99.90;;;;;;5064952;28;39301;-76
2021/01/09 07:40:24;;;;;;;19.60;10.90;;;-1.20;99.90;;;;;;5088693;28;39430;-76
2021/01/09 07:42:51;;;;;;;25.43;10.37;;;-1.20;99.90;;;;;;5066038;28;38384;-75
2021/01/09 07:45:21;;;;;;;18.67;10.20;;;-1.20;99.90;;;;;;5091549;28;37565;-75
2021/01/09 07:47:50;;;;;;;15.77;10.27;;;-1.20;99.90;;;;;;5078460;28;39532;-75
2021/01/09 07:50:18;;;;;;;21.97;9.73;;;-1.10;99.90;;;;;;5089355;28;38539;-76
2021/01/09 07:52:47;;;;;;;18.40;11.10;;;-1.00;99.90;;;;;;5075343;28;36937;-76
2021/01/09 07:55:21;;;;;;;27.73;14.47;;;-0.90;99.90;;;;;;5091822;28;38109;-76
2021/01/09 07:57:48;;;;;;;25.83;13.00;;;-0.80;99.90;;;;;;5089039;28;39350;-76
2021/01/09 08:00:16;;;;;;;23.83;11.87;;;-0.70;99.90;;;;;;5064692;28;38558;-75
2021/01/09 08:02:44;;;;;;;21.00;11.33;;;-0.70;99.90;;;;;;5088320;28;38990;-76
2021/01/09 08:05:20;;;;;;;17.53;9.53;;;-0.70;99.90;;;;;;5061790;28;39133;-76
2021/01/09 08:07:55;;;;;;;14.40;8.23;;;-0.70;99.90;;;;;;5079908;28;39466;-75
2021/01/09 08:10:24;;;;;;;15.43;9.57;;;-0.80;99.90;;;;;;5077304;28;38323;-75
2021/01/09 08:13:06;;;;;;;23.83;11.37;;;-0.80;99.90;;;;;;5089349;28;39197;-76
2021/01/09 08:15:34;;;;;;;19.83;10.20;;;-0.90;99.90;;;;;;5092004;28;46483;-75
2021/01/09 08:18:02;;;;;;;17.87;11.00;;;-0.90;99.90;;;;;;5089308;28;39591;-76
2021/01/09 08:20:29;;;;;;;17.37;9.53;;;-0.90;99.90;;;;;;5084787;28;46848;-76
2021/01/09 08:23:00;;;;;;;19.07;10.00;;;-0.80;99.90;;;;;;5093821;28;37745;-76
2021/01/09 08:25:28;;;;;;;22.07;11.50;;;-0.80;99.90;;;;;;5073867;28;37600;-75
2021/01/09 08:27:56;;;;;;;17.07;11.20;;;-0.90;99.90;;;;;;5054910;28;41052;-75
2021/01/09 08:30:25;;;;;;;21.60;10.83;;;-0.90;99.90;;;;;;5074469;28;40324;-76
2021/01/09 08:33:06;;;;;;;21.53;10.23;;;-0.90;99.90;;;;;;5084272;28;37879;-75
2021/01/09 08:35:36;;;;;;;29.87;16.70;;;-0.90;99.90;;;;;;5055835;28;46869;-76
2021/01/09 08:38:03;;;;;;;21.87;12.77;;;-1.00;99.90;;;;;;5074338;28;39482;-76
2021/01/09 08:40:31;;;;;;;30.83;16.33;;;-0.90;99.90;;;;;;5077714;28;46943;-75
2021/01/09 08:43:02;;;;;;;23.93;12.87;;;-0.90;99.90;;;;;;5086519;28;38492;-76
2021/01/09 08:45:46;;;;;;;22.27;13.47;;;-0.90;99.90;;;;;;5056915;28;47245;-75
2021/01/09 08:48:24;;;;;;;31.37;13.73;;;-0.90;99.90;;;;;;5052746;28;39379;-75
2021/01/09 08:51:12;;;;;;;27.80;14.40;;;-0.90;99.90;;;;;;5071404;28;39005;-75
2021/01/09 08:53:51;;;;;;;19.10;11.90;;;-0.80;99.90;;;;;;5082750;28;46497;-76
2021/01/09 08:56:20;;;;;;;24.23;11.93;;;-0.70;99.90;;;;;;5069729;28;39329;-75
2021/01/09 08:58:47;;;;;;;23.87;13.57;;;-0.70;99.90;;;;;;5057773;28;39663;-75
2021/01/09 09:01:17;;;;;;;25.07;13.30;;;-0.70;99.90;;;;;;5091268;28;38587;-75
2021/01/09 09:03:47;;;;;;;25.67;12.97;;;-0.60;99.90;;;;;;5091769;28;38187;-75
2021/01/09 09:06:15;;;;;;;26.57;12.67;;;-0.60;99.90;;;;;;5094693;28;37430;-76
2021/01/09 09:08:43;;;;;;;32.93;17.00;;;-0.60;99.90;;;;;;5065592;28;39669;-76
2021/01/09 09:11:10;;;;;;;22.90;14.43;;;-0.60;99.90;;;;;;5059532;28;38385;-76
2021/01/09 09:13:36;;;;;;;20.83;14.77;;;-0.60;99.90;;;;;;5088034;28;39061;-76
2021/01/09 09:16:17;;;;;;;38.17;20.07;;;-0.50;99.90;;;;;;5091596;28;37099;-76
2021/01/09 09:18:43;;;;;;;23.67;13.50;;;-0.40;99.90;;;;;;5078291;28;39873;-76
2021/01/09 09:21:10;;;;;;;23.03;12.43;;;-0.30;99.90;;;;;;5078995;28;38521;-76
2021/01/09 09:23:36;;;;;;;25.93;10.57;;;-0.10;99.90;;;;;;5075331;27;38052;-76
2021/01/09 09:26:13;;;;;;;12.57;5.77;;;0.60;99.90;;;;;;5093881;28;38062;-76
2021/01/09 09:28:44;;;;;;;13.53;7.13;;;1.10;99.90;;;;;;5073133;28;39769;-76
2021/01/09 09:31:23;;;;;;;18.97;7.40;;;1.20;99.90;;;;;;5106411;28;39654;-76
2021/01/09 09:34:07;;;;;;;18.80;7.50;;;1.20;99.90;;;;;;5074704;28;36386;-76
2021/01/09 09:36:57;;;;;;;13.37;7.07;;;1.20;99.90;;;;;;5092503;28;48985;-77
2021/01/09 09:39:24;;;;;;;9.63;5.20;;;1.30;99.90;;;;;;5082284;28;39833;-76
2021/01/09 09:42:02;;;;;;;13.83;8.07;;;1.30;99.90;;;;;;5094776;28;38986;-76
2021/01/09 09:44:35;;;;;;;18.10;8.50;;;1.30;99.90;;;;;;5078895;28;47060;-76
2021/01/09 09:47:03;;;;;;;17.20;10.43;;;1.30;99.90;;;;;;5077726;28;38161;-76
2021/01/09 09:49:29;;;;;;;18.63;9.70;;;1.20;99.90;;;;;;5075449;28;39897;-76
2021/01/09 09:51:56;;;;;;;29.93;13.70;;;1.20;99.90;;;;;;5074886;28;38632;-76
2021/01/09 09:54:29;;;;;;;21.27;11.37;;;1.30;99.90;;;;;;5073046;27;40056;-77
2021/01/09 09:56:55;;;;;;;22.53;10.53;;;1.40;99.90;;;;;;5080573;28;36553;-77
2021/01/09 09:59:28;;;;;;;17.33;8.03;;;1.60;99.90;;;;;;5087988;27;39824;-77
2021/01/09 10:02:01;;;;;;;17.77;4.65;;;2.00;99.90;;;;;;5079544;27;38316;-78
2021/01/09 10:04:28;;;;;;;15.40;5.23;;;2.50;99.90;;;;;;5079719;28;47980;-77
2021/01/09 10:06:55;;;;;;;10.77;3.23;;;2.90;99.90;;;;;;5089272;28;38282;-78
2021/01/09 10:09:23;;;;;;;13.67;3.93;;;3.30;99.90;;;;;;5071852;28;39416;-77
2021/01/09 10:11:51;;;;;;;11.13;4.73;;;3.60;99.90;;;;;;5102557;28;38462;-78
2021/01/09 10:14:17;;;;;;;7.43;2.90;;;3.80;99.90;;;;;;5085972;28;38689;-77
2021/01/09 10:16:44;;;;;;;24.63;5.03;;;3.80;99.90;;;;;;5082466;28;36914;-77
2021/01/09 10:19:13;;;;;;;15.47;4.97;;;3.70;99.90;;;;;;5071802;28;39592;-78
2021/01/09 10:21:39;;;;;;;10.23;2.53;;;3.60;99.90;;;;;;5069316;28;39185;-78
2021/01/09 10:24:06;;;;;;;7.17;1.97;;;3.60;99.90;;;;;;5053323;28;38699;-77
2021/01/09 10:26:33;;;;;;;11.03;3.00;;;3.60;99.90;;;;;;5072841;28;39001;-77
2021/01/09 10:29:01;;;;;;;10.10;2.33;;;3.60;99.90;;;;;;5096690;28;40737;-77
2021/01/09 10:31:39;;;;;;;7.90;3.37;;;3.60;99.90;;;;;;5087637;28;40046;-77
2021/01/09 10:34:06;;;;;;;6.63;1.77;;;3.60;99.90;;;;;;5066371;28;39945;-77
2021/01/09 10:36:35;;;;;;;4.07;1.43;;;3.50;99.90;;;;;;5067551;28;36942;-76
2021/01/09 10:39:03;;;;;;;6.03;2.13;;;3.40;99.90;;;;;;5066286;28;39596;-77
2021/01/09 10:41:29;;;;;;;12.60;3.03;;;3.40;99.90;;;;;;5072318;28;47244;-78
2021/01/09 10:43:55;;;;;;;8.20;2.00;;;3.30;99.90;;;;;;5089520;28;39070;-77
2021/01/09 10:46:28;;;;;;;7.50;1.60;;;3.30;99.90;;;;;;5075741;28;38789;-77
2021/01/09 10:48:55;;;;;;;13.60;4.40;;;3.40;99.90;;;;;;5072646;28;39694;-77
2021/01/09 10:51:23;;;;;;;10.73;2.33;;;3.50;99.90;;;;;;5093265;27;39347;-77
2021/01/09 10:53:50;;;;;;;4.73;1.70;;;3.50;99.90;;;;;;5091050;28;38434;-77
2021/01/09 10:56:16;;;;;;;8.40;1.47;;;3.60;99.90;;;;;;5094797;28;35660;-77
2021/01/09 10:58:43;;;;;;;15.33;2.83;;;3.70;99.90;;;;;;5079728;28;40509;-77
2021/01/09 11:01:10;;;;;;;8.90;1.60;;;3.90;99.90;;;;;;5082030;28;39316;-77
2021/01/09 11:03:40;;;;;;;16.27;4.10;;;4.10;99.90;;;;;;5076882;28;37307;-78
2021/01/09 11:06:06;;;;;;;7.23;1.83;;;4.20;99.90;;;;;;5084046;28;37361;-77
2021/01/09 11:08:32;;;;;;;8.57;1.40;;;4.30;99.90;;;;;;5082924;28;37989;-77
2021/01/09 11:10:59;;;;;;;6.77;1.50;;;4.50;99.90;;;;;;5095887;28;20072;-77
2021/01/09 11:13:25;;;;;;;13.20;2.90;;;4.70;99.90;;;;;;5073340;28;37094;-76
2021/01/09 11:15:51;;;;;;;11.10;1.73;;;4.80;99.90;;;;;;5078558;28;36189;-77
2021/01/09 11:18:18;;;;;;;6.17;1.70;;;4.90;99.90;;;;;;5094862;28;39733;-77
2021/01/09 11:20:52;;;;;;;10.20;1.57;;;5.00;99.90;;;;;;5091235;28;37930;-77
2021/01/09 11:23:21;;;;;;;6.10;2.13;;;5.10;99.90;;;;;;5073152;28;38682;-77
2021/01/09 11:25:48;;;;;;;9.90;3.00;;;5.30;99.90;;;;;;5085460;28;37011;-77
2021/01/09 11:28:15;;;;;;;11.47;3.00;;;5.30;99.90;;;;;;5082589;27;40554;-76
2021/01/09 11:30:44;;;;;;;3.80;1.90;;;5.30;99.90;;;;;;5086596;28;38576;-78
2021/01/09 11:33:10;;;;;;;8.73;2.23;;;5.30;99.90;;;;;;5078039;28;37432;-77
2021/01/09 11:35:39;;;;;;;8.27;2.50;;;5.20;99.90;;;;;;5077091;28;38116;-75
2021/01/09 11:38:06;;;;;;;12.33;4.23;;;5.10;99.90;;;;;;5069926;28;39500;-78
2021/01/09 11:40:32;;;;;;;8.60;2.70;;;5.10;99.90;;;;;;5073618;28;38199;-77
2021/01/09 11:42:59;;;;;;;9.00;2.00;;;5.00;99.90;;;;;;5068692;28;37088;-77
2021/01/09 11:45:25;;;;;;;7.23;2.47;;;5.00;99.90;;;;;;5088886;28;36967;-77
2021/01/09 11:47:51;;;;;;;10.60;2.20;;;5.10;99.90;;;;;;5095286;28;39238;-77
2021/01/09 11:50:18;;;;;;;29.03;9.10;;;5.10;99.90;;;;;;5084843;28;39966;-78
2021/01/09 11:52:44;;;;;;;9.77;2.10;;;5.20;99.90;;;;;;5081424;28;39663;-77
2021/01/09 11:55:11;;;;;;;5.97;1.40;;;5.30;99.90;;;;;;5085579;28;39015;-77
2021/01/09 11:57:37;;;;;;;8.30;1.57;;;5.40;99.90;;;;;;5088238;28;40355;-77
2021/01/09 12:00:09;;;;;;;5.20;1.23;;;5.60;99.90;;;;;;5081546;28;37387;-77
2021/01/09 12:02:36;;;;;;;9.63;1.17;;;5.70;99.90;;;;;;5085684;28;47689;-77
2021/01/09 12:05:02;;;;;;;5.97;1.00;;;5.60;99.90;;;;;;5083702;28;38860;-78
2021/01/09 12:07:28;;;;;;;6.03;1.67;;;5.60;99.90;;;;;;5093034;28;38160;-77
2021/01/09 12:09:54;;;;;;;4.60;1.50;;;5.60;99.90;;;;;;5088512;27;40161;-77
2021/01/09 12:12:20;;;;;;;9.60;1.20;;;5.80;99.90;;;;;;5079907;28;38640;-77
2021/01/09 12:14:46;;;;;;;7.50;1.23;;;5.90;99.90;;;;;;5079472;28;39033;-77
2021/01/09 12:17:13;;;;;;;5.77;1.60;;;6.00;99.90;;;;;;5085718;28;40598;-78
2021/01/09 12:19:39;;;;;;;5.93;1.07;;;6.00;99.90;;;;;;5080709;28;39069;-77
2021/01/09 12:22:05;;;;;;;9.07;1.13;;;6.00;99.90;;;;;;5095746;28;38141;-78
2021/01/09 12:24:31;;;;;;;5.93;1.07;;;6.10;99.90;;;;;;5080248;28;34822;-77
2021/01/09 12:26:57;;;;;;;6.20;1.13;;;6.20;99.90;;;;;;5077846;28;41151;-78
2021/01/09 12:29:23;;;;;;;8.30;1.30;;;6.30;99.90;;;;;;5083916;28;39748;-78
2021/01/09 12:31:50;;;;;;;7.40;1.17;;;6.40;99.90;;;;;;5085318;27;39193;-78
2021/01/09 12:34:17;;;;;;;5.53;0.93;;;6.50;99.90;;;;;;5079479;28;38581;-77
2021/01/09 12:36:46;;;;;;;8.17;0.60;;;6.60;99.90;;;;;;5075910;28;38040;-77
2021/01/09 12:39:13;;;;;;;8.10;1.00;;;6.80;99.90;;;;;;5098495;27;38300;-77
2021/01/09 12:41:40;;;;;;;9.07;0.93;;;7.10;99.90;;;;;;5078426;28;38916;-77